Time;durP1;ratioP1;P1;durP2;ratioP2;P2;SDS_P1;SDS_P2;PMS_P1;PMS_P2;Temp;Humidity;BMP_temperature;BMP_pressure;BME280_temperature;BME280_humidity;BME280_pressure;Samples;Min_cycle;Max_cycle;Signal;HPM_P1;HPM_P2
2023/01/09 00:02:00;;;;;;;4.70;2.30;;;;;;;;;;4974012;28;20199;-72
2023/01/09 00:04:26;;;;;;;4.77;2.30;;;;;;;;;;4987570;28;20482;-72
2023/01/09 00:06:54;;;;;;;6.17;2.40;;;;;;;;;;4986468;28;20554;-72
2023/01/09 00:09:22;;;;;;;7.07;2.35;;;;;;;;;;4987404;28;20187;-72
2023/01/09 00:11:48;;;;;;;5.93;3.33;;;;;;;;;;4986493;28;20721;-71
2023/01/09 00:14:17;;;;;;;8.80;3.70;;;;;;;;;;4988379;28;20246;-71
2023/01/09 00:16:43;;;;;;;8.07;4.30;;;;;;;;;;4992037;28;20242;-72
2023/01/09 00:19:08;;;;;;;9.77;4.50;;;;;;;;;;4991952;28;20187;-72
2023/01/09 00:21:35;;;;;;;8.63;5.87;;;;;;;;;;4982717;28;20592;-71
2023/01/09 00:24:00;;;;;;;13.90;7.00;;;;;;;;;;4984367;28;20195;-71
2023/01/09 00:26:26;;;;;;;10.30;5.27;;;;;;;;;;4990263;28;20597;-71
2023/01/09 00:28:52;;;;;;;12.23;4.83;;;;;;;;;;4990614;28;20188;-71
2023/01/09 00:31:18;;;;;;;6.97;4.37;;;;;;;;;;4979621;28;20188;-71
2023/01/09 00:33:49;;;;;;;8.10;4.43;;;;;;;;;;4984558;28;20227;-70
2023/01/09 00:36:14;;;;;;;7.60;3.53;;;;;;;;;;4985301;28;20198;-70
2023/01/09 00:38:40;;;;;;;6.17;3.33;;;;;;;;;;4985893;28;20282;-70
2023/01/09 00:41:08;;;;;;;9.57;3.70;;;;;;;;;;4988509;28;20187;-71
2023/01/09 00:43:43;;;;;;;4.17;2.80;;;;;;;;;;4994700;28;20195;-70
2023/01/09 00:46:10;;;;;;;6.68;2.53;;;;;;;;;;4989923;28;20190;-71
2023/01/09 00:48:37;;;;;;;4.77;2.77;;;;;;;;;;4993345;28;20609;-71
2023/01/09 00:51:03;;;;;;;4.30;2.80;;;;;;;;;;4991214;28;20187;-72
2023/01/09 00:53:31;;;;;;;1.60;0.33;;;;;;;;;;4990729;28;20604;-72
2023/01/09 00:55:59;;;;;;;0.40;0.40;;;;;;;;;;4979147;28;20202;-71
2023/01/09 00:58:25;;;;;;;1.17;0.50;;;;;;;;;;4992211;28;20681;-72
2023/01/09 01:00:50;;;;;;;3.27;0.50;;;;;;;;;;4998389;28;20272;-72
2023/01/09 01:03:15;;;;;;;1.93;0.50;;;;;;;;;;4996527;28;20294;-71
2023/01/09 01:08:25;;;;;;;0.47;0.30;;;;;;;;;;4988780;28;20666;-70
2023/01/09 01:10:50;;;;;;;0.90;0.30;;;;;;;;;;4989311;28;20195;-70
2023/01/09 01:13:16;;;;;;;1.90;0.50;;;;;;;;;;4980712;28;20180;-70
2023/01/09 01:15:43;;;;;;;0.50;0.20;;;;;;;;;;4986729;28;20270;-70
2023/01/09 01:18:10;;;;;;;1.83;0.30;;;;;;;;;;4992463;28;20195;-70
2023/01/09 01:20:38;;;;;;;0.60;0.40;;;;;;;;;;4985266;28;20283;-69
2023/01/09 01:23:03;;;;;;;0.40;0.30;;;;;;;;;;4988705;28;20207;-69
2023/01/09 01:25:29;;;;;;;1.90;0.23;;;;;;;;;;4993032;28;20239;-69
2023/01/09 01:27:54;;;;;;;2.97;0.30;;;;;;;;;;4990186;28;20192;-69
2023/01/09 01:30:19;;;;;;;0.80;0.40;;;;;;;;;;4982681;28;20673;-68
2023/01/09 01:32:45;;;;;;;1.90;0.17;;;;;;;;;;4992638;28;20205;-68
2023/01/09 01:35:11;;;;;;;2.73;0.27;;;;;;;;;;4992139;28;20681;-68
2023/01/09 01:37:37;;;;;;;1.13;0.40;;;;;;;;;;4989850;28;20196;-69
2023/01/09 01:40:05;;;;;;;0.50;0.23;;;;;;;;;;4984143;28;20356;-68
2023/01/09 01:42:31;;;;;;;0.80;0.23;;;;;;;;;;4988293;28;20210;-68
2023/01/09 01:45:02;;;;;;;1.40;0.40;;;;;;;;;;4987482;28;20183;-68
2023/01/09 01:47:51;;;;;;;1.73;0.67;;;;;;;;;;4990524;28;20175;-68
2023/01/09 01:50:19;;;;;;;2.00;0.43;;;;;;;;;;4982131;28;20233;-68
2023/01/09 01:52:56;;;;;;;1.70;0.70;;;;;;;;;;4981387;28;20191;-68
2023/01/09 01:55:22;;;;;;;3.07;0.80;;;;;;;;;;4981468;28;20763;-69
2023/01/09 01:57:53;;;;;;;3.37;1.10;;;;;;;;;;4981064;28;20486;-69
2023/01/09 02:00:25;;;;;;;3.53;1.30;;;;;;;;;;4984656;28;20234;-68
2023/01/09 02:02:51;;;;;;;2.60;1.00;;;;;;;;;;4983743;28;20698;-69
2023/01/09 02:05:16;;;;;;;2.13;1.33;;;;;;;;;;4985095;28;20184;-69
2023/01/09 02:07:42;;;;;;;2.70;1.37;;;;;;;;;;4985597;28;20202;-68
2023/01/09 02:10:08;;;;;;;1.67;1.20;;;;;;;;;;4984838;28;20667;-69
2023/01/09 02:12:33;;;;;;;4.50;1.60;;;;;;;;;;4979670;28;20192;-69
2023/01/09 02:15:07;;;;;;;2.80;1.60;;;;;;;;;;4986761;28;20274;-68
2023/01/09 02:17:38;;;;;;;4.47;1.20;;;;;;;;;;4978108;28;20210;-68
2023/01/09 02:20:34;;;;;;;4.03;1.43;;;;;;;;;;4991287;28;20622;-68
2023/01/09 02:23:28;;;;;;;3.20;1.47;;;;;;;;;;4986028;28;20223;-69
2023/01/09 02:26:00;;;;;;;5.07;1.50;;;;;;;;;;4984881;28;20234;-68
2023/01/09 02:29:05;;;;;;;5.40;1.53;;;;;;;;;;4994898;28;20195;-68
2023/01/09 02:31:45;;;;;;;4.23;1.27;;;;;;;;;;4985005;28;20532;-68
2023/01/09 02:34:17;;;;;;;5.93;1.50;;;;;;;;;;4983603;28;20200;-68
2023/01/09 02:37:18;;;;;;;4.07;1.80;;;;;;;;;;4984291;28;20249;-68
2023/01/09 02:40:04;;;;;;;5.23;1.40;;;;;;;;;;4988489;28;20251;-68
2023/01/09 02:42:32;;;;;;;5.30;1.37;;;;;;;;;;4988944;28;20679;-68
2023/01/09 02:44:57;;;;;;;6.40;1.77;;;;;;;;;;4981669;28;20196;-68
2023/01/09 02:47:23;;;;;;;4.93;2.23;;;;;;;;;;4986434;28;20206;-68
2023/01/09 02:49:52;;;;;;;2.77;1.40;;;;;;;;;;4989387;28;20199;-69
2023/01/09 02:52:48;;;;;;;3.47;1.43;;;;;;;;;;4982272;28;20242;-68
2023/01/09 02:55:36;;;;;;;4.10;1.40;;;;;;;;;;4988691;28;20195;-69
2023/01/09 02:58:29;;;;;;;3.37;1.50;;;;;;;;;;4981598;28;20249;-69
2023/01/09 03:01:23;;;;;;;6.97;1.63;;;;;;;;;;4983190;28;20211;-69
2023/01/09 03:04:01;;;;;;;5.47;1.50;;;;;;;;;;4985214;28;20203;-69
2023/01/09 03:06:54;;;;;;;4.57;1.50;;;;;;;;;;4989947;28;20694;-69
2023/01/09 03:09:23;;;;;;;3.37;1.50;;;;;;;;;;4985287;28;20565;-69
2023/01/09 03:11:54;;;;;;;6.17;1.87;;;;;;;;;;4985296;28;20227;-68
2023/01/09 03:14:22;;;;;;;5.13;2.27;;;;;;;;;;4988540;28;20659;-69
2023/01/09 03:16:54;;;;;;;8.97;2.47;;;;;;;;;;4986092;28;20200;-69
2023/01/09 03:19:22;;;;;;;4.33;2.30;;;;;;;;;;4987526;28;20200;-69
2023/01/09 03:21:49;;;;;;;6.53;3.00;;;;;;;;;;4983405;28;20556;-69
2023/01/09 03:24:15;;;;;;;6.43;2.53;;;;;;;;;;4987366;28;20191;-69
2023/01/09 03:26:41;;;;;;;6.00;2.73;;;;;;;;;;4985298;28;20222;-68
2023/01/09 03:29:06;;;;;;;6.37;2.57;;;;;;;;;;4987795;28;20299;-69
2023/01/09 03:31:31;;;;;;;6.47;3.20;;;;;;;;;;4977890;28;20223;-69
2023/01/09 03:33:57;;;;;;;5.67;3.60;;;;;;;;;;4979372;28;20592;-69
2023/01/09 03:36:23;;;;;;;8.57;3.30;;;;;;;;;;4985171;28;20195;-68
2023/01/09 03:38:48;;;;;;;8.53;3.33;;;;;;;;;;4986867;28;20208;-68
2023/01/09 03:41:14;;;;;;;5.63;3.07;;;;;;;;;;4984808;28;20286;-68
2023/01/09 03:43:39;;;;;;;6.90;3.20;;;;;;;;;;4981527;28;20657;-68
2023/01/09 03:46:05;;;;;;;6.20;3.37;;;;;;;;;;4987922;28;20203;-68
2023/01/09 03:48:30;;;;;;;6.17;3.40;;;;;;;;;;4982141;28;20205;-68
2023/01/09 03:50:56;;;;;;;7.90;4.00;;;;;;;;;;4982694;28;20197;-70
2023/01/09 03:53:23;;;;;;;7.90;4.70;;;;;;;;;;4987893;28;20567;-69
2023/01/09 03:55:52;;;;;;;6.93;3.60;;;;;;;;;;4984196;28;20588;-69
2023/01/09 03:58:19;;;;;;;8.83;4.67;;;;;;;;;;4985589;28;20248;-68
2023/01/09 04:00:45;;;;;;;7.90;4.30;;;;;;;;;;4981329;28;20247;-68
2023/01/09 04:03:11;;;;;;;9.23;4.83;;;;;;;;;;4986892;28;20332;-69
2023/01/09 04:05:37;;;;;;;7.57;4.70;;;;;;;;;;4984399;28;20286;-69
2023/01/09 04:08:03;;;;;;;12.40;5.73;;;;;;;;;;4982044;28;20290;-68
2023/01/09 04:10:29;;;;;;;10.67;4.53;;;;;;;;;;4989887;28;20215;-69
2023/01/09 04:12:54;;;;;;;9.10;5.33;;;;;;;;;;4978333;28;20222;-69
2023/01/09 04:15:20;;;;;;;11.50;5.23;;;;;;;;;;4989677;28;20191;-69
2023/01/09 04:17:45;;;;;;;9.73;5.33;;;;;;;;;;4984626;28;20230;-69
2023/01/09 04:20:11;;;;;;;8.33;5.57;;;;;;;;;;4982783;28;20290;-68
2023/01/09 04:22:37;;;;;;;14.67;6.20;;;;;;;;;;4987860;28;20741;-68
2023/01/09 04:25:02;;;;;;;12.40;6.07;;;;;;;;;;4987790;28;20235;-69
2023/01/09 04:27:29;;;;;;;9.60;5.80;;;;;;;;;;4987383;28;20200;-68
2023/01/09 04:29:54;;;;;;;8.80;5.73;;;;;;;;;;4985796;28;20191;-69
2023/01/09 04:32:20;;;;;;;9.37;5.70;;;;;;;;;;4984902;28;20234;-68
2023/01/09 04:34:45;;;;;;;15.40;6.13;;;;;;;;;;4989661;28;20740;-68
2023/01/09 04:37:10;;;;;;;13.77;5.80;;;;;;;;;;4997474;28;20203;-69
2023/01/09 04:39:36;;;;;;;11.70;5.27;;;;;;;;;;4990509;28;20187;-68
2023/01/09 04:42:01;;;;;;;10.80;5.70;;;;;;;;;;4994523;28;20238;-68
2023/01/09 04:44:27;;;;;;;10.70;5.30;;;;;;;;;;4990913;28;20213;-68
2023/01/09 04:46:54;;;;;;;9.83;4.80;;;;;;;;;;4988365;28;20286;-69
2023/01/09 04:49:20;;;;;;;11.77;5.10;;;;;;;;;;4996416;28;20211;-68
2023/01/09 04:51:45;;;;;;;8.23;4.37;;;;;;;;;;5001218;28;20498;-69
2023/01/09 04:54:10;;;;;;;10.80;4.60;;;;;;;;;;4990192;28;20202;-68
2023/01/09 04:56:36;;;;;;;8.73;4.60;;;;;;;;;;4991340;28;20191;-68
2023/01/09 04:59:02;;;;;;;8.97;4.40;;;;;;;;;;4984972;28;20191;-68
2023/01/09 05:01:28;;;;;;;14.50;4.07;;;;;;;;;;4979178;28;20551;-68
2023/01/09 05:03:53;;;;;;;7.10;3.90;;;;;;;;;;4998946;28;20199;-68
2023/01/09 05:06:19;;;;;;;10.17;4.20;;;;;;;;;;4992555;28;20287;-69
2023/01/09 05:08:44;;;;;;;10.30;4.13;;;;;;;;;;4991657;28;20545;-68
2023/01/09 05:11:10;;;;;;;9.13;3.90;;;;;;;;;;4986338;28;20311;-69
2023/01/09 05:13:35;;;;;;;14.27;3.73;;;;;;;;;;4991300;28;20660;-69
2023/01/09 05:16:00;;;;;;;13.50;4.00;;;;;;;;;;4998957;28;20218;-69
2023/01/09 05:18:26;;;;;;;9.40;3.77;;;;;;;;;;5001528;28;20202;-68
2023/01/09 05:20:51;;;;;;;7.93;3.60;;;;;;;;;;4994603;28;20270;-68
2023/01/09 05:23:16;;;;;;;10.13;3.20;;;;;;;;;;4992119;28;20659;-68
2023/01/09 05:25:42;;;;;;;9.07;3.57;;;;;;;;;;4989307;28;20590;-67
2023/01/09 05:28:07;;;;;;;10.70;3.90;;;;;;;;;;4992516;28;20463;-68
2023/01/09 05:30:33;;;;;;;12.17;4.30;;;;;;;;;;4988379;28;20203;-68
2023/01/09 05:32:58;;;;;;;7.97;4.00;;;;;;;;;;4986166;28;20208;-68
2023/01/09 05:35:23;;;;;;;12.07;3.97;;;;;;;;;;5002270;28;20639;-68
2023/01/09 05:37:49;;;;;;;7.57;3.77;;;;;;;;;;4983343;28;20236;-67
2023/01/09 05:40:14;;;;;;;12.63;3.73;;;;;;;;;;4988755;28;20219;-68
2023/01/09 05:42:41;;;;;;;6.57;3.53;;;;;;;;;;4984686;28;20704;-68
2023/01/09 05:45:07;;;;;;;9.70;3.87;;;;;;;;;;4991032;28;20569;-68
2023/01/09 05:47:32;;;;;;;10.67;4.70;;;;;;;;;;4991712;28;20670;-68
2023/01/09 05:49:59;;;;;;;11.00;4.03;;;;;;;;;;4983504;28;21517;-68
2023/01/09 05:52:24;;;;;;;11.27;4.20;;;;;;;;;;4986372;28;20183;-67
2023/01/09 05:54:50;;;;;;;13.50;4.30;;;;;;;;;;4985790;28;20654;-68
2023/01/09 05:57:15;;;;;;;15.77;4.27;;;;;;;;;;4989506;28;20223;-69
2023/01/09 05:59:41;;;;;;;14.57;4.47;;;;;;;;;;4990843;28;20207;-68
2023/01/09 06:02:06;;;;;;;9.80;4.40;;;;;;;;;;4990620;28;20211;-68
2023/01/09 06:04:32;;;;;;;12.63;5.00;;;;;;;;;;4988881;28;20241;-68
2023/01/09 06:06:57;;;;;;;10.97;3.97;;;;;;;;;;4986030;28;20199;-68
2023/01/09 06:09:23;;;;;;;11.83;4.10;;;;;;;;;;4988689;28;20220;-68
2023/01/09 06:11:48;;;;;;;10.80;4.03;;;;;;;;;;4984473;28;20298;-68
2023/01/09 06:14:13;;;;;;;11.80;4.60;;;;;;;;;;4984644;28;20278;-68
2023/01/09 06:16:39;;;;;;;9.27;3.70;;;;;;;;;;4982218;28;20227;-67
2023/01/09 06:19:04;;;;;;;8.50;3.77;;;;;;;;;;4984877;28;20203;-68
2023/01/09 06:21:31;;;;;;;12.47;4.23;;;;;;;;;;4980813;28;20199;-68
2023/01/09 06:23:57;;;;;;;9.47;3.70;;;;;;;;;;4982611;28;20623;-68
2023/01/09 06:26:23;;;;;;;10.10;3.70;;;;;;;;;;4984122;28;20262;-68
2023/01/09 06:28:48;;;;;;;10.00;4.43;;;;;;;;;;4995633;28;20186;-68
2023/01/09 06:31:14;;;;;;;11.57;3.87;;;;;;;;;;4996303;28;20578;-69
2023/01/09 06:33:39;;;;;;;12.63;3.43;;;;;;;;;;4989134;28;20214;-68
2023/01/09 06:36:05;;;;;;;10.00;3.40;;;;;;;;;;4988061;28;20281;-68
2023/01/09 06:38:30;;;;;;;8.73;3.43;;;;;;;;;;4990886;28;20739;-68
2023/01/09 06:40:56;;;;;;;8.93;3.63;;;;;;;;;;4987051;28;20318;-69
2023/01/09 06:43:21;;;;;;;10.57;3.40;;;;;;;;;;4984272;28;20214;-68
2023/01/09 06:45:47;;;;;;;8.00;3.20;;;;;;;;;;4986895;28;20206;-68
2023/01/09 06:48:12;;;;;;;11.27;3.33;;;;;;;;;;4983750;28;20607;-68
2023/01/09 06:50:37;;;;;;;9.67;2.70;;;;;;;;;;4987860;28;20195;-68
2023/01/09 06:53:03;;;;;;;8.03;2.77;;;;;;;;;;4986854;28;20283;-69
2023/01/09 06:55:28;;;;;;;10.23;3.10;;;;;;;;;;4983478;28;20693;-68
2023/01/09 06:57:54;;;;;;;15.57;4.03;;;;;;;;;;4981614;28;20199;-68
2023/01/09 07:00:19;;;;;;;8.03;3.17;;;;;;;;;;4986287;28;20545;-69
2023/01/09 07:02:45;;;;;;;8.20;2.93;;;;;;;;;;4946981;28;20318;-69
2023/01/09 07:05:11;;;;;;;11.90;3.20;;;;;;;;;;4984141;28;20199;-68
2023/01/09 07:07:37;;;;;;;9.23;3.20;;;;;;;;;;4992396;28;20206;-69
2023/01/09 07:10:03;;;;;;;10.73;2.90;;;;;;;;;;4963524;28;20199;-69
2023/01/09 07:12:28;;;;;;;8.93;3.00;;;;;;;;;;4994244;28;20183;-69
2023/01/09 07:14:54;;;;;;;6.10;2.80;;;;;;;;;;4990180;28;20195;-68
2023/01/09 07:17:19;;;;;;;7.73;2.87;;;;;;;;;;5000523;28;20800;-68
2023/01/09 07:19:45;;;;;;;9.70;2.50;;;;;;;;;;4990156;28;20612;-66
2023/01/09 07:22:10;;;;;;;11.67;2.57;;;;;;;;;;4997455;28;20214;-68
2023/01/09 07:24:35;;;;;;;16.03;2.80;;;;;;;;;;4987395;28;21004;-67
2023/01/09 07:27:01;;;;;;;11.13;2.50;;;;;;;;;;4987138;28;20195;-67
2023/01/09 07:29:26;;;;;;;7.70;2.40;;;;;;;;;;4978168;28;20239;-67
2023/01/09 07:31:52;;;;;;;7.83;2.13;;;;;;;;;;4997880;28;20252;-67
2023/01/09 07:34:18;;;;;;;9.73;2.37;;;;;;;;;;4992466;28;20210;-68
2023/01/09 07:36:45;;;;;;;8.20;2.37;;;;;;;;;;4985543;28;20199;-67
2023/01/09 07:39:12;;;;;;;7.07;2.30;;;;;;;;;;4989119;28;20186;-69
2023/01/09 07:41:37;;;;;;;7.20;2.13;;;;;;;;;;4995007;28;20681;-67
2023/01/09 07:44:02;;;;;;;5.87;2.50;;;;;;;;;;4985502;28;20306;-67
2023/01/09 07:46:28;;;;;;;9.43;2.17;;;;;;;;;;4984819;28;20278;-67
2023/01/09 07:48:53;;;;;;;6.70;2.07;;;;;;;;;;4985141;28;20535;-67
2023/01/09 07:51:18;;;;;;;6.17;2.33;;;;;;;;;;4995280;28;20191;-67
2023/01/09 07:53:44;;;;;;;10.70;2.40;;;;;;;;;;4997947;28;20187;-68
2023/01/09 07:56:09;;;;;;;9.87;2.30;;;;;;;;;;4999114;28;20652;-67
2023/01/09 07:58:35;;;;;;;8.87;2.40;;;;;;;;;;4996538;28;20189;-67
2023/01/09 08:01:00;;;;;;;11.57;2.17;;;;;;;;;;4990452;28;20264;-67
2023/01/09 08:03:25;;;;;;;9.03;2.27;;;;;;;;;;4998155;28;20243;-67
2023/01/09 08:05:51;;;;;;;8.77;2.30;;;;;;;;;;4996635;28;20543;-69
2023/01/09 08:08:16;;;;;;;9.07;2.17;;;;;;;;;;4997818;28;20199;-68
2023/01/09 08:10:42;;;;;;;7.97;2.60;;;;;;;;;;5000778;28;20252;-68
2023/01/09 08:13:08;;;;;;;4.93;1.90;;;;;;;;;;5002010;28;20265;-69
2023/01/09 08:15:33;;;;;;;7.57;2.73;;;;;;;;;;4997095;28;20298;-68
2023/01/09 08:17:58;;;;;;;9.20;2.47;;;;;;;;;;4994934;28;20210;-68
2023/01/09 08:20:24;;;;;;;10.10;2.10;;;;;;;;;;4985818;28;20385;-68
2023/01/09 08:22:52;;;;;;;6.50;2.33;;;;;;;;;;4988848;28;20624;-68
2023/01/09 08:25:17;;;;;;;4.37;2.00;;;;;;;;;;4997537;28;20298;-68
2023/01/09 08:27:43;;;;;;;9.53;2.10;;;;;;;;;;4996372;28;20270;-68
2023/01/09 08:30:09;;;;;;;6.47;1.90;;;;;;;;;;4997489;28;20655;-68
2023/01/09 08:32:36;;;;;;;11.47;2.57;;;;;;;;;;4996103;28;20200;-68
2023/01/09 08:35:02;;;;;;;13.50;2.20;;;;;;;;;;4991758;28;20561;-69
2023/01/09 08:37:27;;;;;;;5.93;1.97;;;;;;;;;;4991862;28;20188;-68
2023/01/09 08:39:53;;;;;;;8.73;2.40;;;;;;;;;;4998955;28;20194;-69
2023/01/09 08:47:47;;;;;;;5.97;2.17;;;;;;;;;;4996303;28;20627;-68
2023/01/09 08:50:13;;;;;;;13.37;2.27;;;;;;;;;;4994997;28;20203;-69
2023/01/09 08:52:38;;;;;;;6.37;2.20;;;;;;;;;;4992450;28;20195;-68
2023/01/09 08:55:04;;;;;;;7.40;2.80;;;;;;;;;;4990851;28;20266;-69
2023/01/09 08:57:29;;;;;;;10.70;2.97;;;;;;;;;;4994733;28;20651;-70
2023/01/09 08:59:55;;;;;;;10.40;3.13;;;;;;;;;;4998493;28;20627;-70
2023/01/09 09:02:20;;;;;;;9.33;2.33;;;;;;;;;;4995145;28;20682;-69
2023/01/09 09:04:46;;;;;;;6.10;2.10;;;;;;;;;;4999413;28;20293;-70
2023/01/09 09:07:12;;;;;;;9.53;2.50;;;;;;;;;;5004110;28;20218;-71
2023/01/09 09:09:38;;;;;;;8.27;2.17;;;;;;;;;;4996574;28;20225;-70
2023/01/09 09:12:03;;;;;;;10.27;2.20;;;;;;;;;;4996761;28;20202;-70
2023/01/09 09:17:20;;;;;;;11.26;2.06;;;;;;;;;;4567651;28;10002934;-69
2023/01/09 09:19:45;;;;;;;8.17;2.13;;;;;;;;;;4993328;28;20325;-70
2023/01/09 09:22:11;;;;;;;6.77;2.50;;;;;;;;;;4998511;28;20241;-69
2023/01/09 09:24:36;;;;;;;8.90;2.57;;;;;;;;;;4996946;28;20556;-69
2023/01/09 09:27:03;;;;;;;7.90;2.40;;;;;;;;;;4994862;28;20195;-69
2023/01/09 09:29:28;;;;;;;11.43;2.67;;;;;;;;;;4997687;28;20346;-69
2023/01/09 09:31:54;;;;;;;4.17;2.20;;;;;;;;;;4997363;28;20270;-68
2023/01/09 09:34:19;;;;;;;14.10;2.93;;;;;;;;;;4998468;28;20183;-69
2023/01/09 09:36:45;;;;;;;6.50;2.50;;;;;;;;;;4991125;28;20286;-69
2023/01/09 09:39:10;;;;;;;8.33;2.50;;;;;;;;;;4978764;28;20650;-69
2023/01/09 09:45:15;;;;;;;8.43;2.17;;;;;;;;;;4992369;28;20723;-68
2023/01/09 09:47:55;;;;;;;4.20;1.80;;;;;;;;;;4996169;28;20199;-68
2023/01/09 09:50:40;;;;;;;8.37;1.67;;;;;;;;;;4994805;28;20749;-69
2023/01/09 09:53:15;;;;;;;5.73;1.90;;;;;;;;;;4999762;28;20221;-69
2023/01/09 09:55:44;;;;;;;6.83;2.47;;;;;;;;;;4991545;28;20190;-69
2023/01/09 09:58:21;;;;;;;6.63;2.00;;;;;;;;;;4996304;28;20266;-69
2023/01/09 10:00:49;;;;;;;8.23;2.70;;;;;;;;;;4993188;28;20226;-68
2023/01/09 10:03:30;;;;;;;5.10;2.10;;;;;;;;;;4989164;28;20718;-69
2023/01/09 10:05:57;;;;;;;5.50;2.43;;;;;;;;;;4994393;28;20187;-69
2023/01/09 10:08:50;;;;;;;5.80;2.20;;;;;;;;;;4993911;28;20191;-70
2023/01/09 10:11:32;;;;;;;6.63;2.10;;;;;;;;;;4983851;28;20577;-70
2023/01/09 10:14:04;;;;;;;4.67;2.03;;;;;;;;;;4990198;28;20366;-69
2023/01/09 10:16:50;;;;;;;4.13;2.20;;;;;;;;;;4994528;28;20203;-70
2023/01/09 10:19:38;;;;;;;6.13;2.90;;;;;;;;;;4976392;28;20281;-69
2023/01/09 10:22:12;;;;;;;6.63;2.97;;;;;;;;;;4999081;28;20207;-69
2023/01/09 10:25:04;;;;;;;7.73;3.40;;;;;;;;;;5000792;28;20239;-69
2023/01/09 10:27:57;;;;;;;6.73;2.70;;;;;;;;;;5001977;28;20199;-69
2023/01/09 10:30:48;;;;;;;8.63;2.80;;;;;;;;;;4645457;28;10000433;-69
2023/01/09 10:33:41;;;;;;;9.77;3.20;;;;;;;;;;4986699;28;20403;-70
2023/01/09 10:36:34;;;;;;;6.90;3.23;;;;;;;;;;4980945;28;20206;-69
2023/01/09 10:39:03;;;;;;;7.40;3.03;;;;;;;;;;4994001;28;20188;-69
2023/01/09 10:41:47;;;;;;;8.47;3.80;;;;;;;;;;4987623;28;20203;-69
2023/01/09 10:44:22;;;;;;;6.93;3.93;;;;;;;;;;4994821;28;20187;-70
2023/01/09 10:46:52;;;;;;;8.53;3.97;;;;;;;;;;4995711;28;20319;-71
2023/01/09 10:49:19;;;;;;;9.57;3.75;;;;;;;;;;5000709;28;20191;-71
2023/01/09 10:51:50;;;;;;;7.70;3.90;;;;;;;;;;4991826;28;20205;-71
2023/01/09 10:54:22;;;;;;;6.70;3.60;;;;;;;;;;4993599;28;20199;-70
2023/01/09 10:57:05;;;;;;;5.53;3.93;;;;;;;;;;4995512;28;20278;-70
2023/01/09 10:59:30;;;;;;;8.87;3.77;;;;;;;;;;4995707;28;20235;-69
2023/01/09 11:01:56;;;;;;;8.73;3.90;;;;;;;;;;4993845;28;20249;-69
2023/01/09 11:04:38;;;;;;;6.73;4.10;;;;;;;;;;4982057;28;20195;-69
2023/01/09 11:07:22;;;;;;;10.13;4.43;;;;;;;;;;4990365;28;20199;-69
2023/01/09 11:10:07;;;;;;;6.90;4.37;;;;;;;;;;4984004;28;20196;-68
2023/01/09 11:12:34;;;;;;;8.80;4.40;;;;;;;;;;4993535;28;20191;-69
2023/01/09 11:15:14;;;;;;;7.87;3.90;;;;;;;;;;4995355;28;20208;-69
2023/01/09 11:17:40;;;;;;;7.00;4.03;;;;;;;;;;4992646;28;20222;-69
2023/01/09 11:20:16;;;;;;;10.13;4.00;;;;;;;;;;4986550;28;20282;-68
2023/01/09 11:22:47;;;;;;;9.17;3.80;;;;;;;;;;4990804;28;20430;-69
2023/01/09 11:25:15;;;;;;;6.27;3.60;;;;;;;;;;4999844;28;20222;-70
2023/01/09 11:27:40;;;;;;;9.87;3.80;;;;;;;;;;4992993;28;20345;-69
2023/01/09 11:30:26;;;;;;;8.23;3.30;;;;;;;;;;4991935;28;20702;-69
2023/01/09 11:32:53;;;;;;;6.90;3.10;;;;;;;;;;5001685;28;20266;-71
2023/01/09 11:35:26;;;;;;;6.43;3.13;;;;;;;;;;4990953;28;20574;-70
2023/01/09 11:38:03;;;;;;;6.13;2.80;;;;;;;;;;4985682;28;20198;-71
2023/01/09 11:40:45;;;;;;;5.33;2.20;;;;;;;;;;4988892;28;20640;-72
2023/01/09 11:43:15;;;;;;;6.50;1.87;;;;;;;;;;4985221;28;20258;-70
2023/01/09 11:45:57;;;;;;;7.07;2.33;;;;;;;;;;4981810;28;20199;-70
2023/01/09 11:48:30;;;;;;;4.70;2.00;;;;;;;;;;4982901;28;20199;-69
2023/01/09 11:50:58;;;;;;;5.03;2.00;;;;;;;;;;4978088;28;20237;-70
2023/01/09 11:53:24;;;;;;;4.17;1.50;;;;;;;;;;4985755;28;20639;-70
2023/01/09 11:56:02;;;;;;;5.17;1.60;;;;;;;;;;4992600;28;20410;-69
2023/01/09 11:58:33;;;;;;;4.03;1.50;;;;;;;;;;4996265;28;20247;-69
2023/01/09 12:01:43;;;;;;;5.33;1.67;;;;;;;;;;4984896;28;20834;-70
2023/01/09 12:04:46;;;;;;;5.13;1.42;;;;;;;;;;4987889;28;20198;-68
2023/01/09 12:07:23;;;;;;;5.13;1.20;;;;;;;;;;4983696;28;20318;-70
2023/01/09 12:09:56;;;;;;;4.72;1.30;;;;;;;;;;4984764;28;20187;-70
2023/01/09 12:12:43;;;;;;;3.53;0.90;;;;;;;;;;4980426;28;20198;-71
2023/01/09 12:15:40;;;;;;;5.18;1.10;;;;;;;;;;4983960;28;20195;-71
2023/01/09 12:18:22;;;;;;;5.13;0.85;;;;;;;;;;4984346;28;20403;-70
2023/01/09 12:21:11;;;;;;;4.00;1.10;;;;;;;;;;4984929;28;20183;-71
2023/01/09 12:24:04;;;;;;;3.13;1.00;;;;;;;;;;4985643;28;20311;-71
2023/01/09 12:26:50;;;;;;;6.23;1.27;;;;;;;;;;4983660;28;20231;-71
2023/01/09 12:29:40;;;;;;;4.73;1.30;;;;;;;;;;4982346;28;20565;-71
2023/01/09 12:32:24;;;;;;;4.23;1.10;;;;;;;;;;4977287;28;20474;-70
2023/01/09 12:35:21;;;;;;;6.60;1.53;;;;;;;;;;4986024;28;20616;-70
2023/01/09 12:38:06;;;;;;;8.60;1.85;;;;;;;;;;4985701;28;20659;-70
2023/01/09 12:40:49;;;;;;;8.90;3.28;;;;;;;;;;4970080;28;20509;-70
2023/01/09 12:43:44;;;;;;;5.93;2.30;;;;;;;;;;4987475;28;20527;-70
2023/01/09 12:46:21;;;;;;;9.18;5.43;;;;;;;;;;4992366;28;20212;-71
2023/01/09 12:48:54;;;;;;;9.45;2.78;;;;;;;;;;4990266;28;20667;-70
2023/01/09 12:51:40;;;;;;;9.93;2.88;;;;;;;;;;4983764;28;20659;-70
2023/01/09 12:54:44;;;;;;;11.20;2.60;;;;;;;;;;4986831;28;20266;-71
2023/01/09 12:57:15;;;;;;;10.13;2.43;;;;;;;;;;4982712;28;20591;-71
2023/01/09 12:59:47;;;;;;;13.07;2.67;;;;;;;;;;4991293;28;20219;-71
2023/01/09 13:02:18;;;;;;;8.20;3.28;;;;;;;;;;4990197;28;20215;-71
2023/01/09 13:04:59;;;;;;;8.02;2.90;;;;;;;;;;4992594;28;20663;-70
2023/01/09 13:07:47;;;;;;;9.98;3.20;;;;;;;;;;4990875;28;20231;-69
2023/01/09 13:10:32;;;;;;;13.52;2.80;;;;;;;;;;4982807;28;20234;-69
2023/01/09 13:13:05;;;;;;;14.73;3.10;;;;;;;;;;4985929;28;20267;-70
2023/01/09 13:15:42;;;;;;;10.05;2.92;;;;;;;;;;4995190;28;20200;-69
2023/01/09 13:18:18;;;;;;;14.02;2.95;;;;;;;;;;4994488;28;20191;-69
2023/01/09 13:20:46;;;;;;;11.73;3.95;;;;;;;;;;4996012;28;20624;-69
2023/01/09 13:23:29;;;;;;;10.73;3.20;;;;;;;;;;4982273;28;20212;-68
2023/01/09 13:25:59;;;;;;;12.88;2.78;;;;;;;;;;4981441;28;20237;-69
2023/01/09 13:28:31;;;;;;;12.60;2.75;;;;;;;;;;4989188;28;20203;-68
2023/01/09 13:31:15;;;;;;;9.43;2.42;;;;;;;;;;4990892;28;20202;-69
2023/01/09 13:33:54;;;;;;;10.30;2.20;;;;;;;;;;4988349;28;20188;-68
2023/01/09 13:36:29;;;;;;;7.25;2.05;;;;;;;;;;4988372;28;20217;-68
2023/01/09 13:38:57;;;;;;;8.88;2.03;;;;;;;;;;4995526;28;20190;-68
2023/01/09 13:44:27;;;;;;;8.13;1.77;;;;;;;;;;4984150;28;20204;-69
2023/01/09 13:46:58;;;;;;;10.40;2.15;;;;;;;;;;4994980;28;20465;-67
2023/01/09 13:49:42;;;;;;;13.82;2.30;;;;;;;;;;4989517;28;20282;-67
2023/01/09 13:52:23;;;;;;;9.45;2.13;;;;;;;;;;4980163;28;20609;-67
2023/01/09 13:54:54;;;;;;;13.75;2.55;;;;;;;;;;4990623;28;20202;-67
2023/01/09 13:57:29;;;;;;;13.13;2.40;;;;;;;;;;4995038;28;20298;-67
2023/01/09 14:00:17;;;;;;;10.75;2.50;;;;;;;;;;5002928;28;20225;-67
2023/01/09 14:02:45;;;;;;;12.27;3.00;;;;;;;;;;4970902;28;20497;-67
2023/01/09 14:05:24;;;;;;;10.23;2.15;;;;;;;;;;4993758;28;20245;-67
2023/01/09 14:08:00;;;;;;;11.15;2.60;;;;;;;;;;4992966;28;20213;-67
2023/01/09 14:10:34;;;;;;;10.93;2.67;;;;;;;;;;4990600;28;20187;-67
2023/01/09 14:13:07;;;;;;;13.48;2.88;;;;;;;;;;4299184;28;10001511;-68
2023/01/09 14:15:39;;;;;;;11.00;2.40;;;;;;;;;;4964720;28;20218;-68
2023/01/09 14:18:06;;;;;;;18.05;3.08;;;;;;;;;;4979807;28;20238;-68
2023/01/09 14:20:37;;;;;;;12.52;2.75;;;;;;;;;;4982373;28;20195;-68
2023/01/09 14:23:03;;;;;;;9.90;2.58;;;;;;;;;;4975685;28;20250;-68
2023/01/09 14:25:30;;;;;;;11.18;2.72;;;;;;;;;;4985886;28;20269;-67
2023/01/09 14:27:55;;;;;;;10.52;2.63;;;;;;;;;;4978714;28;20191;-68
2023/01/09 14:30:33;;;;;;;12.60;3.00;;;;;;;;;;4986047;28;20250;-69
2023/01/09 14:33:00;;;;;;;11.85;3.42;;;;;;;;;;4978805;28;20660;-69
2023/01/09 14:35:33;;;;;;;11.68;3.00;;;;;;;;;;4986773;28;20750;-71
2023/01/09 14:38:04;;;;;;;10.75;3.97;;;;;;;;;;4974932;28;20196;-68
2023/01/09 14:40:32;;;;;;;17.40;3.85;;;;;;;;;;4978727;28;20196;-69
2023/01/09 14:43:06;;;;;;;17.95;3.40;;;;;;;;;;4982298;28;20516;-69
2023/01/09 14:45:34;;;;;;;18.25;3.80;;;;;;;;;;4987457;28;20277;-68
2023/01/09 14:48:02;;;;;;;15.68;3.55;;;;;;;;;;4989973;28;20619;-70
2023/01/09 14:50:43;;;;;;;15.27;3.70;;;;;;;;;;4979824;28;20296;-69
2023/01/09 14:53:17;;;;;;;13.20;3.30;;;;;;;;;;4977936;28;20195;-69
2023/01/09 14:55:57;;;;;;;14.20;3.00;;;;;;;;;;4987979;28;20199;-68
2023/01/09 14:58:26;;;;;;;12.27;3.92;;;;;;;;;;4976309;28;20242;-69
2023/01/09 15:01:01;;;;;;;11.47;3.43;;;;;;;;;;4974816;28;20286;-69
2023/01/09 15:03:41;;;;;;;9.73;3.00;;;;;;;;;;4986214;28;20253;-68
2023/01/09 15:06:13;;;;;;;19.03;3.23;;;;;;;;;;4994019;28;20201;-68
2023/01/09 15:08:44;;;;;;;13.50;3.10;;;;;;;;;;4986432;28;20225;-69
2023/01/09 15:11:11;;;;;;;10.20;2.90;;;;;;;;;;4983797;28;20207;-69
2023/01/09 15:13:41;;;;;;;12.00;3.70;;;;;;;;;;4979720;28;20219;-69
2023/01/09 15:16:17;;;;;;;10.07;2.30;;;;;;;;;;4983002;28;20214;-69
2023/01/09 15:18:45;;;;;;;10.83;2.47;;;;;;;;;;4989881;28;20209;-68